createdAt,value
2023-03-24T00:02:03.142Z,1.40
2023-03-24T00:04:32.780Z,1.00
2023-03-24T00:07:01.655Z,1.30
2023-03-24T00:09:30.047Z,1.53
2023-03-24T00:11:58.697Z,1.47
2023-03-24T00:14:26.915Z,1.10
2023-03-24T00:16:58.518Z,1.10
2023-03-24T00:19:26.979Z,0.93
2023-03-24T00:21:56.488Z,1.23
2023-03-24T00:24:24.484Z,1.30
2023-03-24T00:26:52.655Z,1.30
2023-03-24T00:29:21.135Z,1.13
2023-03-24T00:31:49.290Z,1.17
2023-03-24T00:34:18.173Z,1.23
2023-03-24T00:36:46.518Z,1.33
2023-03-24T00:39:19.657Z,5.03
2023-03-24T00:41:49.233Z,2.40
2023-03-24T00:44:18.875Z,1.60
2023-03-24T00:46:56.381Z,1.50
2023-03-24T00:49:42.013Z,1.47
2023-03-24T00:52:11.086Z,1.47
2023-03-24T00:54:41.401Z,1.10
2023-03-24T00:57:12.997Z,1.10
2023-03-24T00:59:48.795Z,1.17
2023-03-24T01:02:19.396Z,1.00
2023-03-24T01:04:47.621Z,0.90
2023-03-24T01:07:18.068Z,1.13
2023-03-24T01:09:51.911Z,1.20
2023-03-24T01:12:21.817Z,1.30
2023-03-24T01:14:50.307Z,1.07
2023-03-24T01:17:19.264Z,1.30
2023-03-24T01:19:47.534Z,1.20
2023-03-24T01:22:16.530Z,1.13
2023-03-24T01:24:45.454Z,0.90
2023-03-24T01:27:15.015Z,1.10
2023-03-24T01:29:43.593Z,1.20
2023-03-24T01:32:11.840Z,1.10
2023-03-24T01:34:40.061Z,1.10
2023-03-24T01:37:08.124Z,1.00
2023-03-24T01:39:36.447Z,1.10
2023-03-24T01:42:04.568Z,1.00
2023-03-24T01:44:36.015Z,1.13
2023-03-24T01:47:07.503Z,1.30
2023-03-24T01:49:39.593Z,1.17
2023-03-24T01:52:12.891Z,1.00
2023-03-24T01:54:45.230Z,1.20
2023-03-24T01:57:19.210Z,0.87
2023-03-24T01:59:52.403Z,1.00
2023-03-24T02:02:42.660Z,0.90
2023-03-24T02:05:13.056Z,1.03
2023-03-24T02:07:50.699Z,1.20
2023-03-24T02:10:20.717Z,1.00
2023-03-24T02:12:49.880Z,1.53
2023-03-24T02:15:20.687Z,1.40
2023-03-24T02:18:03.952Z,1.70
2023-03-24T02:21:08.657Z,1.70
2023-03-24T02:24:14.784Z,1.40
2023-03-24T02:26:53.198Z,1.40
2023-03-24T02:29:59.453Z,1.30
2023-03-24T02:33:08.765Z,1.50
2023-03-24T02:36:25.089Z,1.40
2023-03-24T02:39:26.519Z,1.70
2023-03-24T02:42:02.190Z,1.40
2023-03-24T02:44:36.569Z,1.83
2023-03-24T02:47:11.713Z,1.43
2023-03-24T02:49:47.571Z,1.53
2023-03-24T02:52:22.589Z,1.60
2023-03-24T02:54:59.917Z,1.93
2023-03-24T02:57:36.230Z,2.07
2023-03-24T03:00:47.174Z,1.90
2023-03-24T03:03:43.446Z,2.33
2023-03-24T03:06:17.618Z,1.93
2023-03-24T03:08:48.926Z,2.07
2023-03-24T03:11:19.408Z,2.13
2023-03-24T03:13:53.003Z,2.20
2023-03-24T03:16:25.712Z,1.93
2023-03-24T03:19:00.149Z,2.07
2023-03-24T03:21:33.445Z,1.90
2023-03-24T03:24:06.046Z,2.33
2023-03-24T03:26:36.480Z,2.50
2023-03-24T03:29:10.108Z,2.97
2023-03-24T03:31:43.193Z,2.47
2023-03-24T03:34:18.801Z,2.53
2023-03-24T03:36:52.051Z,2.70
2023-03-24T03:39:25.768Z,2.13
2023-03-24T03:41:55.730Z,2.47
2023-03-24T03:44:24.965Z,2.60
2023-03-24T03:46:53.879Z,2.47
2023-03-24T03:49:30.209Z,2.73
2023-03-24T03:51:58.777Z,3.60
2023-03-24T03:54:29.744Z,2.60
2023-03-24T03:57:00.361Z,2.80
2023-03-24T03:59:37.132Z,2.60
2023-03-24T04:02:29.579Z,2.83
2023-03-24T04:05:15.191Z,3.00
2023-03-24T04:08:08.170Z,2.50
2023-03-24T04:11:33.515Z,3.53
2023-03-24T04:14:37.443Z,2.53
2023-03-24T04:17:56.707Z,2.63
2023-03-24T04:20:50.079Z,3.07
2023-03-24T04:23:30.244Z,2.60
2023-03-24T04:26:10.366Z,2.50
2023-03-24T04:28:43.962Z,2.80
2023-03-24T04:31:19.040Z,3.30
2023-03-24T04:33:51.321Z,2.50
2023-03-24T04:36:27.499Z,2.70
2023-03-24T04:39:28.049Z,2.97
2023-03-24T04:42:01.029Z,2.47
2023-03-24T04:44:33.077Z,3.00
2023-03-24T04:47:20.888Z,2.63
2023-03-24T04:50:09.182Z,2.73
2023-03-24T04:52:37.205Z,2.53
2023-03-24T04:55:27.686Z,2.60
2023-03-24T04:57:56.494Z,2.60
2023-03-24T05:00:25.886Z,2.67
2023-03-24T05:02:55.464Z,3.00
2023-03-24T05:05:27.252Z,2.83
2023-03-24T05:07:56.897Z,2.97
2023-03-24T05:10:25.326Z,2.53
2023-03-24T05:12:57.460Z,2.80
2023-03-24T05:15:29.070Z,2.37
2023-03-24T05:18:09.996Z,2.20
2023-03-24T05:20:37.903Z,2.87
2023-03-24T05:23:14.925Z,2.70
2023-03-24T05:25:44.910Z,2.80
2023-03-24T05:28:13.265Z,2.70
2023-03-24T05:30:41.359Z,2.33
2023-03-24T05:33:20.684Z,2.43
2023-03-24T05:35:49.172Z,2.43
2023-03-24T05:38:17.629Z,2.43
2023-03-24T05:40:50.113Z,2.43
2023-03-24T05:43:19.546Z,3.20
2023-03-24T05:46:00.001Z,3.23
2023-03-24T05:48:33.591Z,2.40
2023-03-24T05:51:09.945Z,2.57
2023-03-24T05:53:38.173Z,3.00
2023-03-24T05:56:28.974Z,2.50
2023-03-24T05:59:23.334Z,2.63
2023-03-24T06:02:03.368Z,2.50
2023-03-24T06:04:46.663Z,2.30
2023-03-24T06:07:17.817Z,2.53
2023-03-24T06:09:51.005Z,2.23
2023-03-24T06:12:21.690Z,3.03
2023-03-24T06:14:57.195Z,2.53
2023-03-24T06:17:25.671Z,2.10
2023-03-24T06:20:02.906Z,1.70
2023-03-24T06:23:00.634Z,1.40
2023-03-24T06:25:36.977Z,0.90
2023-03-24T06:28:15.826Z,0.97
2023-03-24T06:30:47.407Z,0.80
2023-03-24T06:33:22.062Z,0.90
2023-03-24T06:35:52.508Z,0.80
2023-03-24T06:38:22.242Z,0.73
2023-03-24T06:40:50.342Z,1.10
2023-03-24T06:43:18.381Z,1.00
2023-03-24T06:45:46.803Z,0.93
2023-03-24T06:48:20.055Z,0.87
2023-03-24T06:50:49.066Z,0.87
2023-03-24T06:53:19.062Z,0.90
2023-03-24T06:55:47.570Z,0.80
2023-03-24T06:58:16.765Z,0.90
2023-03-24T07:01:01.595Z,0.60
2023-03-24T07:03:45.322Z,0.93
2023-03-24T07:06:33.186Z,0.73
2023-03-24T07:09:13.884Z,1.03
2023-03-24T07:11:42.484Z,1.33
2023-03-24T07:14:10.761Z,1.20
2023-03-24T07:16:38.840Z,1.17
2023-03-24T07:19:26.221Z,1.60
2023-03-24T07:22:11.010Z,1.50
2023-03-24T07:25:04.646Z,1.60
2023-03-24T07:27:42.347Z,1.00
2023-03-24T07:30:11.392Z,1.00
2023-03-24T07:32:43.886Z,1.23
2023-03-24T07:35:13.632Z,1.53
2023-03-24T07:37:41.788Z,1.67
2023-03-24T07:40:13.270Z,1.50
2023-03-24T07:42:42.375Z,2.10
2023-03-24T07:45:26.183Z,2.00
2023-03-24T07:47:54.447Z,1.40
2023-03-24T07:50:22.364Z,1.83
2023-03-24T07:52:51.378Z,1.50
2023-03-24T07:55:23.102Z,3.43
2023-03-24T07:58:11.441Z,1.60
2023-03-24T08:00:43.281Z,1.40
2023-03-24T08:03:28.089Z,1.10
2023-03-24T08:06:22.779Z,1.47
2023-03-24T08:08:52.259Z,1.23
2023-03-24T08:11:21.909Z,1.17
2023-03-24T08:13:49.739Z,0.80
2023-03-24T08:16:17.897Z,0.87
2023-03-24T08:18:46.333Z,0.90
2023-03-24T08:21:14.261Z,0.80
2023-03-24T08:23:42.826Z,0.93
2023-03-24T08:26:11.703Z,1.40
2023-03-24T08:28:41.548Z,1.70
2023-03-24T08:31:09.696Z,1.80
2023-03-24T08:33:37.785Z,1.50
2023-03-24T08:36:08.424Z,1.00
2023-03-24T08:38:39.038Z,1.07
2023-03-24T08:41:08.549Z,1.53
2023-03-24T08:43:37.708Z,1.43
2023-03-24T08:46:11.771Z,1.63
2023-03-24T08:48:41.330Z,2.13
2023-03-24T08:51:14.710Z,1.40
2023-03-24T08:53:42.702Z,1.63
2023-03-24T08:56:12.835Z,1.93
2023-03-24T08:58:40.811Z,2.67
2023-03-24T09:01:10.321Z,2.67
2023-03-24T09:03:39.481Z,2.67
2023-03-24T09:06:08.181Z,1.80
2023-03-24T09:08:36.258Z,1.53
2023-03-24T09:11:05.076Z,1.60
2023-03-24T09:13:33.571Z,1.53
2023-03-24T09:16:03.718Z,1.90
2023-03-24T09:18:33.555Z,1.90
2023-03-24T09:21:01.533Z,2.27
2023-03-24T09:23:31.563Z,1.37
2023-03-24T09:26:00.394Z,1.40
2023-03-24T09:28:28.424Z,1.60
2023-03-24T09:31:01.620Z,1.67
2023-03-24T09:33:30.461Z,1.50
2023-03-24T09:36:01.459Z,1.33
2023-03-24T09:38:29.645Z,1.50
2023-03-24T09:41:01.666Z,1.67
2023-03-24T09:43:37.256Z,1.50
2023-03-24T09:46:11.661Z,1.30
2023-03-24T09:48:44.878Z,1.37
2023-03-24T09:51:21.733Z,1.80
2023-03-24T09:53:58.029Z,1.47
2023-03-24T09:56:29.715Z,1.40
2023-03-24T09:59:05.833Z,1.60
2023-03-24T10:01:36.486Z,1.53
2023-03-24T10:04:05.899Z,1.70
2023-03-24T10:06:41.939Z,2.00
2023-03-24T10:09:23.028Z,1.47
2023-03-24T10:11:58.652Z,1.40
2023-03-24T10:14:42.095Z,1.30
2023-03-24T10:17:18.738Z,1.57
2023-03-24T10:19:59.319Z,1.20
2023-03-24T10:22:35.547Z,1.30
2023-03-24T10:25:09.677Z,1.20
2023-03-24T10:27:44.145Z,1.70
2023-03-24T10:30:17.847Z,1.70
2023-03-24T10:32:46.647Z,1.10
2023-03-24T10:35:23.031Z,2.10
2023-03-24T10:37:53.253Z,1.17
2023-03-24T10:40:27.105Z,1.30
2023-03-24T10:43:06.379Z,1.10
2023-03-24T10:45:39.171Z,2.27
2023-03-24T10:48:09.596Z,1.50
2023-03-24T10:50:43.911Z,1.03
2023-03-24T10:53:19.724Z,1.00
2023-03-24T10:55:50.931Z,1.73
2023-03-24T10:58:26.577Z,1.20
2023-03-24T11:00:55.592Z,0.93
2023-03-24T11:03:29.655Z,1.17
2023-03-24T11:06:02.387Z,1.20
2023-03-24T11:08:36.386Z,0.97
2023-03-24T11:11:16.310Z,1.20
2023-03-24T11:13:56.690Z,1.20
2023-03-24T11:16:29.840Z,1.30
2023-03-24T11:19:00.487Z,1.00
2023-03-24T11:21:31.395Z,0.98
2023-03-24T11:24:02.982Z,0.85
2023-03-24T11:26:33.269Z,1.67
2023-03-24T11:29:04.518Z,0.90
2023-03-24T11:31:38.509Z,0.80
2023-03-24T11:34:10.894Z,1.00
2023-03-24T11:36:45.363Z,1.02
2023-03-24T11:39:19.388Z,1.08
2023-03-24T11:42:00.529Z,0.98
2023-03-24T11:44:33.017Z,0.90
2023-03-24T11:47:06.422Z,0.88
2023-03-24T11:49:39.251Z,0.95
2023-03-24T11:52:13.881Z,0.80
2023-03-24T11:54:44.330Z,1.00
2023-03-24T11:57:15.700Z,1.40
2023-03-24T11:59:50.957Z,1.37
2023-03-24T12:02:25.835Z,1.47
2023-03-24T12:05:33.180Z,1.40
2023-03-24T12:08:31.777Z,1.23
2023-03-24T12:11:12.496Z,0.83
2023-03-24T12:13:43.222Z,1.10
2023-03-24T12:16:40.238Z,0.70
2023-03-24T12:19:45.715Z,1.17
2023-03-24T12:22:26.388Z,1.37
2023-03-24T12:25:22.710Z,1.70
2023-03-24T12:28:03.524Z,1.40
2023-03-24T12:30:39.776Z,0.90
2023-03-24T12:33:24.258Z,0.87
2023-03-24T12:36:00.865Z,0.90
2023-03-24T12:38:48.852Z,1.07
2023-03-24T12:41:51.489Z,0.90
2023-03-24T12:44:48.020Z,0.93
2023-03-24T12:47:30.964Z,1.30
2023-03-24T12:50:20.853Z,0.90
2023-03-24T12:55:37.617Z,1.20
2023-03-24T12:58:14.065Z,0.80
2023-03-24T13:00:47.556Z,1.13
2023-03-24T13:03:20.005Z,0.90
2023-03-24T13:05:51.821Z,0.80
2023-03-24T13:08:29.242Z,0.70
2023-03-24T13:11:02.425Z,0.97
2023-03-24T13:13:35.250Z,0.87
2023-03-24T13:16:09.735Z,0.70
2023-03-24T13:18:40.613Z,0.80
2023-03-24T13:21:12.897Z,0.80
2023-03-24T13:23:49.023Z,0.70
2023-03-24T13:26:25.103Z,0.63
2023-03-24T13:29:02.592Z,0.63
2023-03-24T13:31:37.078Z,0.70
2023-03-24T13:34:14.776Z,0.70
2023-03-24T13:36:47.943Z,0.80
2023-03-24T13:39:19.785Z,0.77
2023-03-24T13:41:51.563Z,0.70
2023-03-24T13:44:22.753Z,0.60
2023-03-24T13:47:09.881Z,0.73
2023-03-24T13:49:39.563Z,0.60
2023-03-24T13:52:21.998Z,0.80
2023-03-24T13:54:58.449Z,0.80
2023-03-24T13:57:26.972Z,0.70
2023-03-24T14:00:18.728Z,0.60
2023-03-24T14:02:50.332Z,0.63
2023-03-24T14:05:33.449Z,2.30
2023-03-24T14:08:18.447Z,0.90
2023-03-24T14:10:48.710Z,1.00
2023-03-24T14:13:38.844Z,0.93
2023-03-24T14:16:43.950Z,1.00
2023-03-24T14:19:28.299Z,0.90
2023-03-24T14:22:09.449Z,0.70
2023-03-24T14:24:37.969Z,0.57
2023-03-24T14:27:37.489Z,0.77
2023-03-24T14:30:20.309Z,0.60
2023-03-24T14:32:50.630Z,0.70
2023-03-24T14:35:36.956Z,0.97
2023-03-24T14:38:19.935Z,0.50
2023-03-24T14:40:50.776Z,0.60
2023-03-24T14:43:24.350Z,0.80
2023-03-24T14:45:55.924Z,0.60
2023-03-24T14:48:33.579Z,0.70
2023-03-24T14:51:13.337Z,0.67
2023-03-24T14:53:42.605Z,0.70
2023-03-24T14:56:16.097Z,0.50
2023-03-24T14:58:46.275Z,0.70
2023-03-24T15:01:17.319Z,0.50
2023-03-24T15:03:56.534Z,0.53
2023-03-24T15:06:25.877Z,0.30
2023-03-24T15:08:55.379Z,0.40
2023-03-24T15:11:26.479Z,0.50
2023-03-24T15:13:55.614Z,0.60
2023-03-24T15:16:26.779Z,0.30
2023-03-24T15:19:02.073Z,0.50
2023-03-24T15:21:35.811Z,0.60
2023-03-24T15:24:24.649Z,0.50
2023-03-24T15:26:55.455Z,0.40
2023-03-24T15:29:24.028Z,0.37
2023-03-24T15:31:52.145Z,0.77
2023-03-24T15:34:29.213Z,0.40
2023-03-24T15:37:02.039Z,0.90
2023-03-24T15:39:33.675Z,0.67
2023-03-24T15:42:01.693Z,0.60
2023-03-24T15:44:31.753Z,0.70
2023-03-24T15:47:01.255Z,0.57
2023-03-24T15:49:33.567Z,0.50
2023-03-24T15:52:06.820Z,0.47
2023-03-24T15:54:41.121Z,0.53
2023-03-24T15:57:16.467Z,0.70
2023-03-24T15:59:49.752Z,0.50
2023-03-24T16:02:29.010Z,0.50
2023-03-24T16:05:10.436Z,0.63
2023-03-24T16:07:42.454Z,0.60
2023-03-24T16:10:32.067Z,1.00
2023-03-24T16:13:14.561Z,0.50
2023-03-24T16:15:44.206Z,1.10
2023-03-24T16:18:18.424Z,0.90
2023-03-24T16:20:46.527Z,0.80
2023-03-24T16:23:15.843Z,1.20
2023-03-24T16:25:43.814Z,1.10
2023-03-24T16:28:13.701Z,0.90
2023-03-24T16:30:43.986Z,1.07
2023-03-24T16:33:12.743Z,1.10
2023-03-24T16:35:40.724Z,1.83
2023-03-24T16:38:11.188Z,1.30
2023-03-24T16:40:43.016Z,0.93
2023-03-24T16:43:11.142Z,0.90
2023-03-24T16:45:39.152Z,0.97
2023-03-24T16:48:07.729Z,1.00
2023-03-24T16:50:38.429Z,0.83
2023-03-24T16:53:08.182Z,0.70
2023-03-24T16:55:36.524Z,0.60
2023-03-24T16:58:06.726Z,2.37
2023-03-24T17:00:36.945Z,1.37
2023-03-24T17:03:06.148Z,1.30
2023-03-24T17:05:40.611Z,0.90
2023-03-24T17:08:10.451Z,0.97
2023-03-24T17:10:38.534Z,0.90
2023-03-24T17:13:07.738Z,1.80
2023-03-24T17:15:35.754Z,1.40
2023-03-24T17:18:05.338Z,1.60
2023-03-24T17:20:34.957Z,1.40
2023-03-24T17:23:03.036Z,1.10
2023-03-24T17:25:31.496Z,1.10
2023-03-24T17:27:59.749Z,1.60
2023-03-24T17:30:30.625Z,1.50
2023-03-24T17:32:58.662Z,2.20
2023-03-24T17:35:27.049Z,2.27
2023-03-24T17:37:54.995Z,2.30
2023-03-24T17:40:23.203Z,1.30
2023-03-24T17:42:51.530Z,1.10
2023-03-24T17:45:20.607Z,0.80
2023-03-24T17:47:49.992Z,0.80
2023-03-24T17:50:18.201Z,0.70
2023-03-24T17:52:47.850Z,2.20
2023-03-24T17:55:17.743Z,1.03
2023-03-24T17:57:46.324Z,0.80
2023-03-24T18:00:16.198Z,0.70
2023-03-24T18:02:45.170Z,0.40
2023-03-24T18:05:15.838Z,0.77
2023-03-24T18:07:44.275Z,0.53
2023-03-24T18:10:13.840Z,0.60
2023-03-24T18:12:41.790Z,0.60
2023-03-24T18:15:10.788Z,1.33
2023-03-24T18:17:38.720Z,1.97
2023-03-24T18:20:10.848Z,1.40
2023-03-24T18:22:40.960Z,0.90
2023-03-24T18:25:11.280Z,0.53
2023-03-24T18:27:39.539Z,0.50
2023-03-24T18:30:09.949Z,0.43
2023-03-24T18:32:39.038Z,0.57
2023-03-24T18:35:07.956Z,0.53
2023-03-24T18:37:36.485Z,0.60
2023-03-24T18:40:08.291Z,0.50
2023-03-24T18:42:36.915Z,0.40
2023-03-24T18:45:05.468Z,0.40
2023-03-24T18:47:33.472Z,0.40
2023-03-24T18:50:01.907Z,0.50
2023-03-24T18:52:30.750Z,0.60
2023-03-24T18:54:59.339Z,0.63
2023-03-24T18:57:29.317Z,0.83
2023-03-24T18:59:57.335Z,0.73
2023-03-24T19:02:25.722Z,0.70
2023-03-24T19:04:54.074Z,0.80
2023-03-24T19:07:26.049Z,0.77
2023-03-24T19:09:54.753Z,0.83
2023-03-24T19:12:22.630Z,0.83
2023-03-24T19:14:54.074Z,0.60
2023-03-24T19:17:23.762Z,0.60
2023-03-24T19:19:51.740Z,0.40
2023-03-24T19:22:22.008Z,0.70
2023-03-24T19:24:50.244Z,0.83
2023-03-24T19:27:18.859Z,0.90
2023-03-24T19:29:47.451Z,0.67
2023-03-24T19:32:16.898Z,0.80
2023-03-24T19:34:44.742Z,0.90
2023-03-24T19:37:14.015Z,0.60
2023-03-24T19:39:41.939Z,0.70
2023-03-24T19:42:10.079Z,1.53
2023-03-24T19:44:38.318Z,0.97
2023-03-24T19:47:06.184Z,1.10
2023-03-24T19:49:35.947Z,1.10
2023-03-24T19:52:06.428Z,1.10
2023-03-24T19:54:35.375Z,0.80
2023-03-24T19:57:03.914Z,0.80
2023-03-24T19:59:32.497Z,0.60
2023-03-24T20:02:00.919Z,0.70
2023-03-24T20:04:28.814Z,0.67
2023-03-24T20:06:58.678Z,0.60
2023-03-24T20:09:26.608Z,0.47
2023-03-24T20:11:54.612Z,0.50
2023-03-24T20:14:22.727Z,0.97
2023-03-24T20:16:50.681Z,0.53
2023-03-24T20:19:18.774Z,0.50
2023-03-24T20:21:46.853Z,0.67
2023-03-24T20:24:16.596Z,0.70
2023-03-24T20:26:46.019Z,0.67
2023-03-24T20:29:16.633Z,0.77
2023-03-24T20:31:45.915Z,0.50
2023-03-24T20:34:14.679Z,0.60
2023-03-24T20:36:43.611Z,0.50
2023-03-24T20:39:13.835Z,0.50
2023-03-24T20:41:43.676Z,0.80
2023-03-24T20:44:13.283Z,0.90
2023-03-24T20:46:42.570Z,0.50
2023-03-24T20:49:14.219Z,0.67
2023-03-24T20:51:42.853Z,0.50
2023-03-24T20:54:11.362Z,0.57
2023-03-24T20:56:39.848Z,0.60
2023-03-24T20:59:10.482Z,0.53
2023-03-24T21:01:42.352Z,0.40
2023-03-24T21:04:11.663Z,0.53
2023-03-24T21:06:40.050Z,0.60
2023-03-24T21:09:08.550Z,0.53
2023-03-24T21:11:38.198Z,1.20
2023-03-24T21:14:06.504Z,0.63
2023-03-24T21:16:38.085Z,0.70
2023-03-24T21:19:06.898Z,0.97
2023-03-24T21:21:35.105Z,0.80
2023-03-24T21:24:04.516Z,0.60
2023-03-24T21:26:32.815Z,0.70
2023-03-24T21:29:00.973Z,0.63
2023-03-24T21:31:30.239Z,0.73
2023-03-24T21:33:59.868Z,1.07
2023-03-24T21:36:29.812Z,0.80
2023-03-24T21:38:57.897Z,0.80
2023-03-24T21:41:25.861Z,0.60
2023-03-24T21:43:54.485Z,0.60
2023-03-24T21:46:26.410Z,0.60
2023-03-24T21:48:59.612Z,0.57
2023-03-24T21:51:34.312Z,0.63
2023-03-24T21:54:04.504Z,0.50
2023-03-24T21:56:33.191Z,0.53
2023-03-24T21:59:01.811Z,0.63
2023-03-24T22:01:31.029Z,0.47
2023-03-24T22:03:59.592Z,0.60
2023-03-24T22:06:29.652Z,0.80
2023-03-24T22:09:06.569Z,0.60
2023-03-24T22:11:35.111Z,0.50
2023-03-24T22:14:03.501Z,0.40
2023-03-24T22:16:32.946Z,0.40
2023-03-24T22:19:01.720Z,0.30
2023-03-24T22:21:32.175Z,0.50
2023-03-24T22:24:00.305Z,0.63
2023-03-24T22:26:28.230Z,0.40
2023-03-24T22:28:57.170Z,0.80
2023-03-24T22:31:25.051Z,0.40
2023-03-24T22:33:53.703Z,0.30
2023-03-24T22:36:21.844Z,0.50
2023-03-24T22:38:51.326Z,0.40
2023-03-24T22:41:19.266Z,0.30
2023-03-24T22:43:47.401Z,0.40
2023-03-24T22:46:15.428Z,0.50
2023-03-24T22:48:43.694Z,0.47
2023-03-24T22:51:16.756Z,0.40
2023-03-24T22:53:45.173Z,0.30
2023-03-24T22:56:15.583Z,0.40
2023-03-24T22:58:43.590Z,0.60
2023-03-24T23:01:11.645Z,0.67
2023-03-24T23:03:39.588Z,0.50
2023-03-24T23:06:09.154Z,0.40
2023-03-24T23:08:38.351Z,0.30
2023-03-24T23:11:07.730Z,0.50
2023-03-24T23:13:38.707Z,0.30
2023-03-24T23:16:07.711Z,0.60
2023-03-24T23:18:35.935Z,0.40
2023-03-24T23:21:07.276Z,0.43
2023-03-24T23:23:35.958Z,0.30
2023-03-24T23:26:04.837Z,0.40
2023-03-24T23:28:33.345Z,0.40
2023-03-24T23:31:02.922Z,0.30
2023-03-24T23:33:30.956Z,0.30
2023-03-24T23:36:01.778Z,0.40
2023-03-24T23:38:29.878Z,0.40
2023-03-24T23:40:58.062Z,0.50
2023-03-24T23:43:26.237Z,0.40
2023-03-24T23:45:56.252Z,0.30
2023-03-24T23:48:26.098Z,0.43
2023-03-24T23:50:57.547Z,1.10
2023-03-24T23:53:25.818Z,0.57
2023-03-24T23:55:57.107Z,0.30
2023-03-24T23:58:25.368Z,0.40
